sensor_id;sensor_type;location;lat;lon;timestamp;temperature;humidity
54006;DHT22;39919;38.160;-122.260;2023-08-12T00:01:09;23.60;66.90
54006;DHT22;39919;38.160;-122.260;2023-08-12T00:03:40;23.60;66.40
54006;DHT22;39919;38.160;-122.260;2023-08-12T00:06:12;23.60;66.70
54006;DHT22;39919;38.160;-122.260;2023-08-12T00:08:41;23.60;66.70
54006;DHT22;39919;38.160;-122.260;2023-08-12T00:11:10;23.50;66.60
54006;DHT22;39919;38.160;-122.260;2023-08-12T00:13:39;23.40;66.90
54006;DHT22;39919;38.160;-122.260;2023-08-12T00:16:09;23.40;67.10
54006;DHT22;39919;38.160;-122.260;2023-08-12T00:18:39;23.40;67.40
54006;DHT22;39919;38.160;-122.260;2023-08-12T00:21:10;23.30;67.40
54006;DHT22;39919;38.160;-122.260;2023-08-12T00:23:40;23.30;67.40
54006;DHT22;39919;38.160;-122.260;2023-08-12T00:26:10;23.20;67.70
54006;DHT22;39919;38.160;-122.260;2023-08-12T00:28:40;23.10;67.50
54006;DHT22;39919;38.160;-122.260;2023-08-12T00:31:09;23.10;67.90
54006;DHT22;39919;38.160;-122.260;2023-08-12T00:33:39;23.00;68.50
54006;DHT22;39919;38.160;-122.260;2023-08-12T00:36:09;23.00;68.70
54006;DHT22;39919;38.160;-122.260;2023-08-12T00:38:38;22.90;68.90
54006;DHT22;39919;38.160;-122.260;2023-08-12T00:41:07;22.80;69.30
54006;DHT22;39919;38.160;-122.260;2023-08-12T00:43:36;22.80;69.60
54006;DHT22;39919;38.160;-122.260;2023-08-12T00:46:05;22.70;70.00
54006;DHT22;39919;38.160;-122.260;2023-08-12T00:48:34;22.60;70.10
54006;DHT22;39919;38.160;-122.260;2023-08-12T00:51:05;22.60;70.10
54006;DHT22;39919;38.160;-122.260;2023-08-12T00:53:34;22.50;70.30
54006;DHT22;39919;38.160;-122.260;2023-08-12T00:56:05;22.40;70.00
54006;DHT22;39919;38.160;-122.260;2023-08-12T00:58:34;22.40;70.50
54006;DHT22;39919;38.160;-122.260;2023-08-12T01:01:03;22.40;70.70
54006;DHT22;39919;38.160;-122.260;2023-08-12T01:03:32;22.30;70.30
54006;DHT22;39919;38.160;-122.260;2023-08-12T01:06:04;22.30;70.90
54006;DHT22;39919;38.160;-122.260;2023-08-12T01:08:34;22.20;71.00
54006;DHT22;39919;38.160;-122.260;2023-08-12T01:11:15;22.20;71.30
54006;DHT22;39919;38.160;-122.260;2023-08-12T01:13:49;22.20;71.50
54006;DHT22;39919;38.160;-122.260;2023-08-12T01:16:22;22.10;71.90
54006;DHT22;39919;38.160;-122.260;2023-08-12T01:18:53;22.00;72.10
54006;DHT22;39919;38.160;-122.260;2023-08-12T01:21:25;22.00;72.40
54006;DHT22;39919;38.160;-122.260;2023-08-12T01:24:01;21.90;72.40
54006;DHT22;39919;38.160;-122.260;2023-08-12T01:26:31;21.80;72.50
54006;DHT22;39919;38.160;-122.260;2023-08-12T01:29:00;21.80;72.60
54006;DHT22;39919;38.160;-122.260;2023-08-12T01:31:37;21.70;72.80
54006;DHT22;39919;38.160;-122.260;2023-08-12T01:34:14;21.70;73.50
54006;DHT22;39919;38.160;-122.260;2023-08-12T01:36:49;21.60;73.90
54006;DHT22;39919;38.160;-122.260;2023-08-12T01:39:24;21.50;74.50
54006;DHT22;39919;38.160;-122.260;2023-08-12T01:41:55;21.50;74.20
54006;DHT22;39919;38.160;-122.260;2023-08-12T01:44:24;21.50;74.10
54006;DHT22;39919;38.160;-122.260;2023-08-12T01:46:54;21.40;74.10
54006;DHT22;39919;38.160;-122.260;2023-08-12T01:49:24;21.40;74.40
54006;DHT22;39919;38.160;-122.260;2023-08-12T01:51:53;21.30;74.70
54006;DHT22;39919;38.160;-122.260;2023-08-12T01:54:24;21.30;74.70
54006;DHT22;39919;38.160;-122.260;2023-08-12T01:56:53;21.30;74.90
54006;DHT22;39919;38.160;-122.260;2023-08-12T01:59:22;21.20;74.70
54006;DHT22;39919;38.160;-122.260;2023-08-12T02:01:51;21.10;74.70
54006;DHT22;39919;38.160;-122.260;2023-08-12T02:04:22;21.10;75.20
54006;DHT22;39919;38.160;-122.260;2023-08-12T02:06:52;21.10;75.20
54006;DHT22;39919;38.160;-122.260;2023-08-12T02:09:23;21.00;74.90
54006;DHT22;39919;38.160;-122.260;2023-08-12T02:11:52;21.00;75.20
54006;DHT22;39919;38.160;-122.260;2023-08-12T02:14:21;21.00;75.20
54006;DHT22;39919;38.160;-122.260;2023-08-12T02:16:50;21.00;75.50
54006;DHT22;39919;38.160;-122.260;2023-08-12T02:19:19;20.90;75.20
54006;DHT22;39919;38.160;-122.260;2023-08-12T02:21:48;20.90;75.60
54006;DHT22;39919;38.160;-122.260;2023-08-12T02:24:18;20.80;75.70
54006;DHT22;39919;38.160;-122.260;2023-08-12T02:26:48;20.80;76.00
54006;DHT22;39919;38.160;-122.260;2023-08-12T02:29:17;20.70;75.90
54006;DHT22;39919;38.160;-122.260;2023-08-12T02:31:47;20.70;76.50
54006;DHT22;39919;38.160;-122.260;2023-08-12T02:34:16;20.60;76.50
54006;DHT22;39919;38.160;-122.260;2023-08-12T02:36:45;20.60;76.80
54006;DHT22;39919;38.160;-122.260;2023-08-12T02:39:14;20.50;76.90
54006;DHT22;39919;38.160;-122.260;2023-08-12T02:41:43;20.40;76.90
54006;DHT22;39919;38.160;-122.260;2023-08-12T02:44:14;20.40;77.50
54006;DHT22;39919;38.160;-122.260;2023-08-12T02:46:43;20.40;77.80
54006;DHT22;39919;38.160;-122.260;2023-08-12T02:49:12;20.30;77.70
54006;DHT22;39919;38.160;-122.260;2023-08-12T02:51:41;20.20;78.10
54006;DHT22;39919;38.160;-122.260;2023-08-12T02:54:11;20.20;78.30
54006;DHT22;39919;38.160;-122.260;2023-08-12T02:56:40;20.10;78.30
54006;DHT22;39919;38.160;-122.260;2023-08-12T02:59:09;20.00;78.40
54006;DHT22;39919;38.160;-122.260;2023-08-12T03:01:41;20.00;79.00
54006;DHT22;39919;38.160;-122.260;2023-08-12T03:04:10;19.90;79.10
54006;DHT22;39919;38.160;-122.260;2023-08-12T03:06:39;19.80;79.40
54006;DHT22;39919;38.160;-122.260;2023-08-12T03:09:08;19.80;79.50
54006;DHT22;39919;38.160;-122.260;2023-08-12T03:11:37;19.70;79.90
54006;DHT22;39919;38.160;-122.260;2023-08-12T03:14:06;19.60;79.90
54006;DHT22;39919;38.160;-122.260;2023-08-12T03:16:38;19.60;80.40
54006;DHT22;39919;38.160;-122.260;2023-08-12T03:19:07;19.50;80.50
54006;DHT22;39919;38.160;-122.260;2023-08-12T03:21:36;19.40;80.40
54006;DHT22;39919;38.160;-122.260;2023-08-12T03:24:06;19.30;80.50
54006;DHT22;39919;38.160;-122.260;2023-08-12T03:26:35;19.30;81.00
54006;DHT22;39919;38.160;-122.260;2023-08-12T03:29:04;19.30;81.30
54006;DHT22;39919;38.160;-122.260;2023-08-12T03:31:33;19.30;81.70
54006;DHT22;39919;38.160;-122.260;2023-08-12T03:34:04;19.20;81.60
54006;DHT22;39919;38.160;-122.260;2023-08-12T03:36:33;19.20;81.90
54006;DHT22;39919;38.160;-122.260;2023-08-12T03:39:02;19.10;82.10
54006;DHT22;39919;38.160;-122.260;2023-08-12T03:41:31;19.00;82.20
54006;DHT22;39919;38.160;-122.260;2023-08-12T03:44:00;19.00;82.50
54006;DHT22;39919;38.160;-122.260;2023-08-12T03:46:30;18.90;82.80
54006;DHT22;39919;38.160;-122.260;2023-08-12T03:48:59;18.90;83.30
54006;DHT22;39919;38.160;-122.260;2023-08-12T03:51:30;18.90;83.80
54006;DHT22;39919;38.160;-122.260;2023-08-12T03:53:59;18.90;83.60
54006;DHT22;39919;38.160;-122.260;2023-08-12T03:56:28;18.80;83.90
54006;DHT22;39919;38.160;-122.260;2023-08-12T03:58:57;18.80;83.90
54006;DHT22;39919;38.160;-122.260;2023-08-12T04:01:26;18.80;84.30
54006;DHT22;39919;38.160;-122.260;2023-08-12T04:03:55;18.70;84.50
54006;DHT22;39919;38.160;-122.260;2023-08-12T06:32:08;16.10;98.80
54006;DHT22;39919;38.160;-122.260;2023-08-12T06:34:39;16.50;99.50
54006;DHT22;39919;38.160;-122.260;2023-08-12T06:37:08;16.60;99.10
54006;DHT22;39919;38.160;-122.260;2023-08-12T06:39:38;16.60;98.80
54006;DHT22;39919;38.160;-122.260;2023-08-12T06:42:07;16.70;98.60
54006;DHT22;39919;38.160;-122.260;2023-08-12T06:47:24;16.90;98.20
54006;DHT22;39919;38.160;-122.260;2023-08-12T06:49:59;17.00;98.00
54006;DHT22;39919;38.160;-122.260;2023-08-12T06:52:28;17.10;97.60
54006;DHT22;39919;38.160;-122.260;2023-08-12T06:55:00;17.10;97.30
54006;DHT22;39919;38.160;-122.260;2023-08-12T06:57:30;17.20;97.00
54006;DHT22;39919;38.160;-122.260;2023-08-12T06:59:59;17.20;96.60
54006;DHT22;39919;38.160;-122.260;2023-08-12T07:02:30;17.30;96.50
54006;DHT22;39919;38.160;-122.260;2023-08-12T07:04:59;17.30;96.50
54006;DHT22;39919;38.160;-122.260;2023-08-12T07:07:29;17.40;96.50
54006;DHT22;39919;38.160;-122.260;2023-08-12T07:09:58;17.40;96.10
54006;DHT22;39919;38.160;-122.260;2023-08-12T07:12:27;17.40;96.00
54006;DHT22;39919;38.160;-122.260;2023-08-12T07:14:56;17.40;95.90
54006;DHT22;39919;38.160;-122.260;2023-08-12T07:17:25;17.40;95.80
54006;DHT22;39919;38.160;-122.260;2023-08-12T07:19:56;17.40;95.50
54006;DHT22;39919;38.160;-122.260;2023-08-12T07:22:25;17.40;95.40
54006;DHT22;39919;38.160;-122.260;2023-08-12T07:24:54;17.40;95.10
54006;DHT22;39919;38.160;-122.260;2023-08-12T07:27:26;17.50;95.30
54006;DHT22;39919;38.160;-122.260;2023-08-12T07:29:55;17.50;95.30
54006;DHT22;39919;38.160;-122.260;2023-08-12T07:32:25;17.50;95.40
54006;DHT22;39919;38.160;-122.260;2023-08-12T07:34:55;17.50;95.40
54006;DHT22;39919;38.160;-122.260;2023-08-12T07:37:25;17.50;95.40
54006;DHT22;39919;38.160;-122.260;2023-08-12T07:39:54;17.60;95.50
54006;DHT22;39919;38.160;-122.260;2023-08-12T07:42:23;17.60;95.40
54006;DHT22;39919;38.160;-122.260;2023-08-12T07:44:52;17.60;95.00
54006;DHT22;39919;38.160;-122.260;2023-08-12T07:47:21;17.60;94.60
54006;DHT22;39919;38.160;-122.260;2023-08-12T07:49:50;17.60;94.50
54006;DHT22;39919;38.160;-122.260;2023-08-12T07:52:21;17.70;94.10
54006;DHT22;39919;38.160;-122.260;2023-08-12T07:54:50;17.70;93.80
54006;DHT22;39919;38.160;-122.260;2023-08-12T07:57:19;17.70;93.60
54006;DHT22;39919;38.160;-122.260;2023-08-12T07:59:51;17.80;93.30
54006;DHT22;39919;38.160;-122.260;2023-08-12T08:02:20;17.80;93.20
54006;DHT22;39919;38.160;-122.260;2023-08-12T08:05:04;17.80;93.40
54006;DHT22;39919;38.160;-122.260;2023-08-12T08:07:35;17.90;92.90
54006;DHT22;39919;38.160;-122.260;2023-08-12T08:10:05;17.90;92.90
54006;DHT22;39919;38.160;-122.260;2023-08-12T08:12:34;17.90;92.80
54006;DHT22;39919;38.160;-122.260;2023-08-12T08:15:04;17.90;92.70
54006;DHT22;39919;38.160;-122.260;2023-08-12T08:17:33;18.00;92.60
54006;DHT22;39919;38.160;-122.260;2023-08-12T08:20:03;17.90;92.50
54006;DHT22;39919;38.160;-122.260;2023-08-12T08:22:34;18.00;92.30
54006;DHT22;39919;38.160;-122.260;2023-08-12T08:25:03;18.00;92.50
54006;DHT22;39919;38.160;-122.260;2023-08-12T08:27:32;18.00;92.20
54006;DHT22;39919;38.160;-122.260;2023-08-12T08:30:02;18.10;92.50
54006;DHT22;39919;38.160;-122.260;2023-08-12T08:32:31;18.10;92.40
54006;DHT22;39919;38.160;-122.260;2023-08-12T08:35:00;18.10;92.60
54006;DHT22;39919;38.160;-122.260;2023-08-12T08:37:29;18.10;92.30
54006;DHT22;39919;38.160;-122.260;2023-08-12T08:40:00;18.10;92.30
54006;DHT22;39919;38.160;-122.260;2023-08-12T08:42:30;18.10;92.00
54006;DHT22;39919;38.160;-122.260;2023-08-12T08:45:01;18.10;91.80
54006;DHT22;39919;38.160;-122.260;2023-08-12T08:47:30;18.10;91.80
54006;DHT22;39919;38.160;-122.260;2023-08-12T08:50:01;18.20;91.80
54006;DHT22;39919;38.160;-122.260;2023-08-12T08:52:30;18.20;91.80
54006;DHT22;39919;38.160;-122.260;2023-08-12T08:55:02;18.20;91.50
54006;DHT22;39919;38.160;-122.260;2023-08-12T08:57:32;18.20;91.20
54006;DHT22;39919;38.160;-122.260;2023-08-12T09:00:01;18.20;91.00
54006;DHT22;39919;38.160;-122.260;2023-08-12T09:02:36;18.20;91.10
54006;DHT22;39919;38.160;-122.260;2023-08-12T09:05:07;18.20;90.90
54006;DHT22;39919;38.160;-122.260;2023-08-12T09:07:36;18.20;90.80
54006;DHT22;39919;38.160;-122.260;2023-08-12T09:10:08;18.20;90.80
54006;DHT22;39919;38.160;-122.260;2023-08-12T09:12:37;18.20;90.70
54006;DHT22;39919;38.160;-122.260;2023-08-12T09:15:07;18.20;90.40
54006;DHT22;39919;38.160;-122.260;2023-08-12T09:17:36;18.20;90.50
54006;DHT22;39919;38.160;-122.260;2023-08-12T09:20:06;18.20;90.30
54006;DHT22;39919;38.160;-122.260;2023-08-12T09:22:40;18.20;90.50
54006;DHT22;39919;38.160;-122.260;2023-08-12T09:25:14;18.10;90.50
54006;DHT22;39919;38.160;-122.260;2023-08-12T09:27:43;18.10;90.30
54006;DHT22;39919;38.160;-122.260;2023-08-12T09:30:16;18.00;90.40
54006;DHT22;39919;38.160;-122.260;2023-08-12T09:32:59;17.90;90.10
54006;DHT22;39919;38.160;-122.260;2023-08-12T09:35:34;17.90;89.80
54006;DHT22;39919;38.160;-122.260;2023-08-12T09:38:05;17.80;89.70
54006;DHT22;39919;38.160;-122.260;2023-08-12T09:40:37;17.80;89.30
54006;DHT22;39919;38.160;-122.260;2023-08-12T09:43:06;17.70;89.70
54006;DHT22;39919;38.160;-122.260;2023-08-12T09:45:35;17.60;89.60
54006;DHT22;39919;38.160;-122.260;2023-08-12T09:48:05;17.60;90.00
54006;DHT22;39919;38.160;-122.260;2023-08-12T09:50:36;17.60;90.30
54006;DHT22;39919;38.160;-122.260;2023-08-12T09:53:06;17.50;90.10
54006;DHT22;39919;38.160;-122.260;2023-08-12T09:55:37;17.50;90.10
54006;DHT22;39919;38.160;-122.260;2023-08-12T09:58:10;17.40;90.10
54006;DHT22;39919;38.160;-122.260;2023-08-12T10:00:41;17.40;90.10
54006;DHT22;39919;38.160;-122.260;2023-08-12T10:03:12;17.40;90.10
54006;DHT22;39919;38.160;-122.260;2023-08-12T10:05:42;17.40;92.50
54006;DHT22;39919;38.160;-122.260;2023-08-12T10:08:13;17.40;92.00
54006;DHT22;39919;38.160;-122.260;2023-08-12T10:10:44;17.20;90.00
54006;DHT22;39919;38.160;-122.260;2023-08-12T10:13:14;17.30;92.20
54006;DHT22;39919;38.160;-122.260;2023-08-12T10:15:43;17.20;90.20
54006;DHT22;39919;38.160;-122.260;2023-08-12T10:18:13;17.20;90.30
54006;DHT22;39919;38.160;-122.260;2023-08-12T10:20:44;17.20;90.70
54006;DHT22;39919;38.160;-122.260;2023-08-12T10:23:16;17.20;90.60
54006;DHT22;39919;38.160;-122.260;2023-08-12T10:25:48;17.10;90.70
54006;DHT22;39919;38.160;-122.260;2023-08-12T10:28:19;17.20;90.70
54006;DHT22;39919;38.160;-122.260;2023-08-12T10:30:49;17.20;90.70
54006;DHT22;39919;38.160;-122.260;2023-08-12T10:33:18;17.20;90.60
54006;DHT22;39919;38.160;-122.260;2023-08-12T10:35:49;17.20;90.70
54006;DHT22;39919;38.160;-122.260;2023-08-12T10:38:20;17.20;90.60
54006;DHT22;39919;38.160;-122.260;2023-08-12T10:40:51;17.20;90.90
54006;DHT22;39919;38.160;-122.260;2023-08-12T10:43:20;17.30;91.00
54006;DHT22;39919;38.160;-122.260;2023-08-12T10:45:52;17.30;91.00
54006;DHT22;39919;38.160;-122.260;2023-08-12T10:48:23;17.30;90.80
54006;DHT22;39919;38.160;-122.260;2023-08-12T10:50:53;17.30;90.80
54006;DHT22;39919;38.160;-122.260;2023-08-12T10:53:26;17.40;90.60
54006;DHT22;39919;38.160;-122.260;2023-08-12T10:56:01;17.40;90.60
54006;DHT22;39919;38.160;-122.260;2023-08-12T10:58:35;17.40;90.70
54006;DHT22;39919;38.160;-122.260;2023-08-12T11:01:13;17.50;90.30
54006;DHT22;39919;38.160;-122.260;2023-08-12T11:03:43;17.50;90.20
54006;DHT22;39919;38.160;-122.260;2023-08-12T11:06:13;17.50;90.20
54006;DHT22;39919;38.160;-122.260;2023-08-12T11:08:47;17.50;90.20
54006;DHT22;39919;38.160;-122.260;2023-08-12T11:11:22;17.50;90.20
54006;DHT22;39919;38.160;-122.260;2023-08-12T11:13:54;17.50;90.40
54006;DHT22;39919;38.160;-122.260;2023-08-12T11:16:35;17.50;90.40
54006;DHT22;39919;38.160;-122.260;2023-08-12T11:19:07;17.60;90.40
54006;DHT22;39919;38.160;-122.260;2023-08-12T11:21:37;17.60;91.40
54006;DHT22;39919;38.160;-122.260;2023-08-12T11:24:08;17.60;91.10
54006;DHT22;39919;38.160;-122.260;2023-08-12T11:26:39;17.70;90.80
54006;DHT22;39919;38.160;-122.260;2023-08-12T11:29:10;17.60;90.50
54006;DHT22;39919;38.160;-122.260;2023-08-12T11:31:40;17.60;90.40
54006;DHT22;39919;38.160;-122.260;2023-08-12T11:34:09;17.60;90.80
54006;DHT22;39919;38.160;-122.260;2023-08-12T11:36:39;17.60;90.70
54006;DHT22;39919;38.160;-122.260;2023-08-12T11:39:09;17.70;90.60
54006;DHT22;39919;38.160;-122.260;2023-08-12T11:41:40;17.60;90.50
54006;DHT22;39919;38.160;-122.260;2023-08-12T11:44:12;17.60;90.30
54006;DHT22;39919;38.160;-122.260;2023-08-12T11:46:44;17.70;90.40
54006;DHT22;39919;38.160;-122.260;2023-08-12T11:49:13;17.70;90.30
54006;DHT22;39919;38.160;-122.260;2023-08-12T11:51:43;17.70;90.20
54006;DHT22;39919;38.160;-122.260;2023-08-12T11:54:13;17.70;90.50
54006;DHT22;39919;38.160;-122.260;2023-08-12T11:56:44;17.70;90.30
54006;DHT22;39919;38.160;-122.260;2023-08-12T11:59:13;17.70;90.20
54006;DHT22;39919;38.160;-122.260;2023-08-12T12:01:48;17.70;90.10
54006;DHT22;39919;38.160;-122.260;2023-08-12T12:04:17;17.70;90.00
54006;DHT22;39919;38.160;-122.260;2023-08-12T12:06:47;17.70;89.70
54006;DHT22;39919;38.160;-122.260;2023-08-12T12:09:16;17.70;89.60
54006;DHT22;39919;38.160;-122.260;2023-08-12T12:11:52;17.70;89.50
54006;DHT22;39919;38.160;-122.260;2023-08-12T12:14:22;17.70;89.20
54006;DHT22;39919;38.160;-122.260;2023-08-12T12:16:51;17.70;89.10
54006;DHT22;39919;38.160;-122.260;2023-08-12T12:19:21;17.70;89.00
54006;DHT22;39919;38.160;-122.260;2023-08-12T12:21:51;17.70;89.20
54006;DHT22;39919;38.160;-122.260;2023-08-12T12:24:21;17.70;89.10
54006;DHT22;39919;38.160;-122.260;2023-08-12T12:26:52;17.70;88.90
54006;DHT22;39919;38.160;-122.260;2023-08-12T12:29:21;17.70;88.80
54006;DHT22;39919;38.160;-122.260;2023-08-12T12:31:50;17.60;88.60
54006;DHT22;39919;38.160;-122.260;2023-08-12T12:34:19;17.60;88.40
54006;DHT22;39919;38.160;-122.260;2023-08-12T12:36:49;17.60;88.90
54006;DHT22;39919;38.160;-122.260;2023-08-12T12:39:18;17.60;88.30
54006;DHT22;39919;38.160;-122.260;2023-08-12T12:41:51;17.60;88.60
54006;DHT22;39919;38.160;-122.260;2023-08-12T12:44:20;17.60;88.70
54006;DHT22;39919;38.160;-122.260;2023-08-12T12:46:49;17.60;88.50
54006;DHT22;39919;38.160;-122.260;2023-08-12T12:49:19;17.60;88.40
54006;DHT22;39919;38.160;-122.260;2023-08-12T12:51:48;17.70;88.50
54006;DHT22;39919;38.160;-122.260;2023-08-12T12:54:17;17.60;88.40
54006;DHT22;39919;38.160;-122.260;2023-08-12T12:56:47;17.60;88.40
54006;DHT22;39919;38.160;-122.260;2023-08-12T12:59:18;17.60;88.60
54006;DHT22;39919;38.160;-122.260;2023-08-12T13:01:47;17.60;88.80
54006;DHT22;39919;38.160;-122.260;2023-08-12T13:04:16;17.60;88.80
54006;DHT22;39919;38.160;-122.260;2023-08-12T13:06:45;17.60;89.10
54006;DHT22;39919;38.160;-122.260;2023-08-12T13:09:14;17.60;88.90
54006;DHT22;39919;38.160;-122.260;2023-08-12T13:11:43;17.60;89.00
54006;DHT22;39919;38.160;-122.260;2023-08-12T13:14:13;17.60;88.90
54006;DHT22;39919;38.160;-122.260;2023-08-12T13:16:45;17.60;88.70
54006;DHT22;39919;38.160;-122.260;2023-08-12T13:19:14;17.60;88.80
54006;DHT22;39919;38.160;-122.260;2023-08-12T13:21:43;17.60;88.90
54006;DHT22;39919;38.160;-122.260;2023-08-12T13:24:12;17.60;88.80
54006;DHT22;39919;38.160;-122.260;2023-08-12T13:26:42;17.60;88.70
54006;DHT22;39919;38.160;-122.260;2023-08-12T13:29:11;17.60;88.70
54006;DHT22;39919;38.160;-122.260;2023-08-12T13:31:40;17.60;88.80
54006;DHT22;39919;38.160;-122.260;2023-08-12T13:34:11;17.60;88.70
54006;DHT22;39919;38.160;-122.260;2023-08-12T13:36:40;17.60;88.70
54006;DHT22;39919;38.160;-122.260;2023-08-12T13:39:09;17.60;88.60
54006;DHT22;39919;38.160;-122.260;2023-08-12T13:41:38;17.60;89.00
54006;DHT22;39919;38.160;-122.260;2023-08-12T13:44:10;17.60;89.00
54006;DHT22;39919;38.160;-122.260;2023-08-12T13:46:39;17.60;88.80
54006;DHT22;39919;38.160;-122.260;2023-08-12T13:49:10;17.60;88.80
54006;DHT22;39919;38.160;-122.260;2023-08-12T13:51:39;17.60;88.70
54006;DHT22;39919;38.160;-122.260;2023-08-12T13:54:08;17.60;88.70
54006;DHT22;39919;38.160;-122.260;2023-08-12T13:56:38;17.60;88.60
54006;DHT22;39919;38.160;-122.260;2023-08-12T13:59:07;17.60;88.70
54006;DHT22;39919;38.160;-122.260;2023-08-12T14:01:36;17.60;88.80
54006;DHT22;39919;38.160;-122.260;2023-08-12T14:04:06;17.60;88.60
54006;DHT22;39919;38.160;-122.260;2023-08-12T14:06:37;17.70;88.60
54006;DHT22;39919;38.160;-122.260;2023-08-12T14:09:06;17.70;88.70
54006;DHT22;39919;38.160;-122.260;2023-08-12T14:11:36;17.70;88.50
54006;DHT22;39919;38.160;-122.260;2023-08-12T14:14:05;17.70;88.40
54006;DHT22;39919;38.160;-122.260;2023-08-12T14:16:35;17.80;88.50
54006;DHT22;39919;38.160;-122.260;2023-08-12T14:19:06;17.80;88.50
54006;DHT22;39919;38.160;-122.260;2023-08-12T14:21:39;17.80;88.30
54006;DHT22;39919;38.160;-122.260;2023-08-12T14:24:08;17.80;88.30
54006;DHT22;39919;38.160;-122.260;2023-08-12T14:26:38;17.80;88.40
54006;DHT22;39919;38.160;-122.260;2023-08-12T14:29:07;17.90;88.80
54006;DHT22;39919;38.160;-122.260;2023-08-12T14:31:36;17.80;88.50
54006;DHT22;39919;38.160;-122.260;2023-08-12T14:34:05;17.90;88.60
54006;DHT22;39919;38.160;-122.260;2023-08-12T14:36:34;17.90;88.60
54006;DHT22;39919;38.160;-122.260;2023-08-12T14:39:08;17.90;88.40
54006;DHT22;39919;38.160;-122.260;2023-08-12T14:41:39;17.90;88.20
54006;DHT22;39919;38.160;-122.260;2023-08-12T14:44:08;18.00;88.10
54006;DHT22;39919;38.160;-122.260;2023-08-12T14:46:37;18.00;88.00
54006;DHT22;39919;38.160;-122.260;2023-08-12T14:49:06;18.00;88.10
54006;DHT22;39919;38.160;-122.260;2023-08-12T14:51:35;18.10;88.10
54006;DHT22;39919;38.160;-122.260;2023-08-12T14:54:07;18.20;88.30
54006;DHT22;39919;38.160;-122.260;2023-08-12T14:56:36;18.20;88.10
54006;DHT22;39919;38.160;-122.260;2023-08-12T14:59:08;18.20;88.00
54006;DHT22;39919;38.160;-122.260;2023-08-12T15:01:37;18.30;87.90
54006;DHT22;39919;38.160;-122.260;2023-08-12T15:04:06;18.30;87.70
54006;DHT22;39919;38.160;-122.260;2023-08-12T15:06:35;18.30;87.50
54006;DHT22;39919;38.160;-122.260;2023-08-12T15:09:06;18.40;87.50
54006;DHT22;39919;38.160;-122.260;2023-08-12T15:11:36;18.40;87.20
54006;DHT22;39919;38.160;-122.260;2023-08-12T15:14:05;18.50;87.10
54006;DHT22;39919;38.160;-122.260;2023-08-12T15:16:34;18.50;87.30
54006;DHT22;39919;38.160;-122.260;2023-08-12T15:19:04;18.60;87.10
54006;DHT22;39919;38.160;-122.260;2023-08-12T15:21:35;18.60;86.70
54006;DHT22;39919;38.160;-122.260;2023-08-12T15:24:09;18.70;86.60
54006;DHT22;39919;38.160;-122.260;2023-08-12T15:26:44;18.80;86.40
54006;DHT22;39919;38.160;-122.260;2023-08-12T15:29:13;18.90;86.20
54006;DHT22;39919;38.160;-122.260;2023-08-12T15:31:42;18.90;86.00
54006;DHT22;39919;38.160;-122.260;2023-08-12T15:34:11;19.00;85.80
54006;DHT22;39919;38.160;-122.260;2023-08-12T15:36:40;19.00;86.00
54006;DHT22;39919;38.160;-122.260;2023-08-12T15:39:11;19.00;86.00
54006;DHT22;39919;38.160;-122.260;2023-08-12T15:41:42;19.10;85.90
54006;DHT22;39919;38.160;-122.260;2023-08-12T15:44:12;19.10;85.70
54006;DHT22;39919;38.160;-122.260;2023-08-12T15:46:41;19.20;85.50
54006;DHT22;39919;38.160;-122.260;2023-08-12T15:49:11;19.30;85.30
54006;DHT22;39919;38.160;-122.260;2023-08-12T15:51:40;19.30;85.30
54006;DHT22;39919;38.160;-122.260;2023-08-12T15:54:11;19.30;85.10
54006;DHT22;39919;38.160;-122.260;2023-08-12T15:56:40;19.40;84.90
54006;DHT22;39919;38.160;-122.260;2023-08-12T15:59:12;19.50;84.70
54006;DHT22;39919;38.160;-122.260;2023-08-12T16:01:42;19.50;84.50
54006;DHT22;39919;38.160;-122.260;2023-08-12T16:04:13;19.60;84.20
54006;DHT22;39919;38.160;-122.260;2023-08-12T16:06:42;19.70;83.90
54006;DHT22;39919;38.160;-122.260;2023-08-12T16:09:13;19.70;83.60
54006;DHT22;39919;38.160;-122.260;2023-08-12T16:11:42;19.80;83.40
54006;DHT22;39919;38.160;-122.260;2023-08-12T16:14:11;19.90;83.30
54006;DHT22;39919;38.160;-122.260;2023-08-12T16:16:40;20.00;83.20
54006;DHT22;39919;38.160;-122.260;2023-08-12T16:19:09;20.00;82.90
54006;DHT22;39919;38.160;-122.260;2023-08-12T16:21:38;20.20;82.70
54006;DHT22;39919;38.160;-122.260;2023-08-12T16:24:08;20.20;82.10
54006;DHT22;39919;38.160;-122.260;2023-08-12T16:26:39;20.30;81.60
54006;DHT22;39919;38.160;-122.260;2023-08-12T16:29:10;20.40;81.90
54006;DHT22;39919;38.160;-122.260;2023-08-12T16:31:42;20.60;82.00
54006;DHT22;39919;38.160;-122.260;2023-08-12T16:34:13;20.80;81.70
54006;DHT22;39919;38.160;-122.260;2023-08-12T16:36:42;21.10;81.20
54006;DHT22;39919;38.160;-122.260;2023-08-12T16:39:12;21.20;81.00
54006;DHT22;39919;38.160;-122.260;2023-08-12T16:41:42;21.50;79.90
54006;DHT22;39919;38.160;-122.260;2023-08-12T16:44:12;21.80;80.00
54006;DHT22;39919;38.160;-122.260;2023-08-12T16:46:41;22.10;78.30
54006;DHT22;39919;38.160;-122.260;2023-08-12T16:49:14;22.50;77.30
54006;DHT22;39919;38.160;-122.260;2023-08-12T16:51:43;22.90;77.60
54006;DHT22;39919;38.160;-122.260;2023-08-12T16:54:12;23.30;77.00
54006;DHT22;39919;38.160;-122.260;2023-08-12T16:56:45;23.80;76.30
54006;DHT22;39919;38.160;-122.260;2023-08-12T16:59:14;24.30;75.10
54006;DHT22;39919;38.160;-122.260;2023-08-12T17:01:43;24.70;74.50
54006;DHT22;39919;38.160;-122.260;2023-08-12T17:04:14;25.20;73.30
54006;DHT22;39919;38.160;-122.260;2023-08-12T17:06:43;25.80;73.10
54006;DHT22;39919;38.160;-122.260;2023-08-12T17:09:12;26.60;71.50
54006;DHT22;39919;38.160;-122.260;2023-08-12T17:11:46;27.50;70.10
54006;DHT22;39919;38.160;-122.260;2023-08-12T17:14:15;28.40;66.60
54006;DHT22;39919;38.160;-122.260;2023-08-12T17:16:45;29.30;65.50
54006;DHT22;39919;38.160;-122.260;2023-08-12T17:19:14;30.60;62.60
54006;DHT22;39919;38.160;-122.260;2023-08-12T17:21:43;31.00;63.30
54006;DHT22;39919;38.160;-122.260;2023-08-12T17:24:12;31.90;60.60
54006;DHT22;39919;38.160;-122.260;2023-08-12T17:26:41;32.80;60.70
54006;DHT22;39919;38.160;-122.260;2023-08-12T17:29:21;33.70;57.40
54006;DHT22;39919;38.160;-122.260;2023-08-12T17:31:52;34.50;56.00
54006;DHT22;39919;38.160;-122.260;2023-08-12T17:34:22;35.30;54.90